sensor_id;sensor_type;location;lat;lon;timestamp;pressure;altitude;pressure_sealevel;temperature
67353;BMP180;54238;52.278;21.056;2023-02-18T00:02:04;99290.20;;;9.00
67353;BMP180;54238;52.278;21.056;2023-02-18T00:04:32;99309.00;;;8.90
67353;BMP180;54238;52.278;21.056;2023-02-18T00:06:59;99326.80;;;8.90
67353;BMP180;54238;52.278;21.056;2023-02-18T00:09:28;99322.80;;;8.90
67353;BMP180;54238;52.278;21.056;2023-02-18T00:12:07;99334.80;;;8.88
67353;BMP180;54238;52.278;21.056;2023-02-18T00:14:37;99324.80;;;8.82
67353;BMP180;54238;52.278;21.056;2023-02-18T00:17:10;99333.80;;;8.80
67353;BMP180;54238;52.278;21.056;2023-02-18T00:19:42;99346.80;;;8.80
67353;BMP180;54238;52.278;21.056;2023-02-18T00:22:14;99343.40;;;8.70
67353;BMP180;54238;52.278;21.056;2023-02-18T00:24:43;99354.80;;;8.70
67353;BMP180;54238;52.278;21.056;2023-02-18T00:27:11;99350.80;;;8.68
67353;BMP180;54238;52.278;21.056;2023-02-18T00:29:45;99364.40;;;8.60
67353;BMP180;54238;52.278;21.056;2023-02-18T00:32:12;99349.60;;;8.60
67353;BMP180;54238;52.278;21.056;2023-02-18T00:34:39;99350.00;;;8.54
67353;BMP180;54238;52.278;21.056;2023-02-18T00:37:06;99366.40;;;8.50
67353;BMP180;54238;52.278;21.056;2023-02-18T00:39:56;99353.00;;;8.50
67353;BMP180;54238;52.278;21.056;2023-02-18T00:42:24;99349.00;;;8.50
67353;BMP180;54238;52.278;21.056;2023-02-18T00:44:54;99360.00;;;8.40
67353;BMP180;54238;52.278;21.056;2023-02-18T00:47:23;99344.60;;;8.40
67353;BMP180;54238;52.278;21.056;2023-02-18T00:49:53;99342.20;;;8.40
67353;BMP180;54238;52.278;21.056;2023-02-18T00:52:20;99347.00;;;8.40
67353;BMP180;54238;52.278;21.056;2023-02-18T00:54:52;99342.80;;;8.40
67353;BMP180;54238;52.278;21.056;2023-02-18T00:57:21;99362.40;;;8.30
67353;BMP180;54238;52.278;21.056;2023-02-18T00:59:48;99369.80;;;8.30
67353;BMP180;54238;52.278;21.056;2023-02-18T01:02:16;99356.00;;;8.30
67353;BMP180;54238;52.278;21.056;2023-02-18T01:04:49;99399.00;;;8.20
67353;BMP180;54238;52.278;21.056;2023-02-18T01:07:21;99364.60;;;8.20
67353;BMP180;54238;52.278;21.056;2023-02-18T01:09:53;99369.00;;;8.20
67353;BMP180;54238;52.278;21.056;2023-02-18T01:12:20;99402.60;;;8.20
67353;BMP180;54238;52.278;21.056;2023-02-18T01:14:54;99369.20;;;8.20
67353;BMP180;54238;52.278;21.056;2023-02-18T01:17:21;99370.80;;;8.20
67353;BMP180;54238;52.278;21.056;2023-02-18T01:19:53;99374.00;;;8.18
67353;BMP180;54238;52.278;21.056;2023-02-18T01:22:20;99388.20;;;8.12
67353;BMP180;54238;52.278;21.056;2023-02-18T01:24:51;99366.00;;;8.14
67353;BMP180;54238;52.278;21.056;2023-02-18T01:27:19;99359.40;;;8.10
67353;BMP180;54238;52.278;21.056;2023-02-18T01:29:48;99372.00;;;8.10
67353;BMP180;54238;52.278;21.056;2023-02-18T01:32:15;99349.60;;;8.10
67353;BMP180;54238;52.278;21.056;2023-02-18T01:34:42;99371.80;;;8.00
67353;BMP180;54238;52.278;21.056;2023-02-18T01:37:09;99375.60;;;8.00
67353;BMP180;54238;52.278;21.056;2023-02-18T01:39:39;99352.00;;;8.00
67353;BMP180;54238;52.278;21.056;2023-02-18T01:48:10;99341.60;;;8.00
67353;BMP180;54238;52.278;21.056;2023-02-18T01:51:08;99341.80;;;8.00
67353;BMP180;54238;52.278;21.056;2023-02-18T01:56:33;99356.20;;;7.90
67353;BMP180;54238;52.278;21.056;2023-02-18T01:59:11;99350.60;;;7.90
67353;BMP180;54238;52.278;21.056;2023-02-18T02:01:43;99353.20;;;7.90
67353;BMP180;54238;52.278;21.056;2023-02-18T02:04:17;99333.00;;;7.90
67353;BMP180;54238;52.278;21.056;2023-02-18T02:06:46;99332.00;;;7.90
67353;BMP180;54238;52.278;21.056;2023-02-18T02:09:19;99350.60;;;7.90
67353;BMP180;54238;52.278;21.056;2023-02-18T02:15:08;99343.20;;;7.90
67353;BMP180;54238;52.278;21.056;2023-02-18T02:17:53;99364.60;;;7.88
67353;BMP180;54238;52.278;21.056;2023-02-18T02:36:11;99339.20;;;7.68
67353;BMP180;54238;52.278;21.056;2023-02-18T02:42:18;99343.60;;;7.60
67353;BMP180;54238;52.278;21.056;2023-02-18T02:45:03;99335.60;;;7.60
67353;BMP180;54238;52.278;21.056;2023-02-18T02:47:54;99387.20;;;7.60
67353;BMP180;54238;52.278;21.056;2023-02-18T02:50:39;99330.00;;;7.60
67353;BMP180;54238;52.278;21.056;2023-02-18T02:53:26;99335.60;;;7.60
67353;BMP180;54238;52.278;21.056;2023-02-18T02:56:01;99342.20;;;7.60
67353;BMP180;54238;52.278;21.056;2023-02-18T02:59:06;99341.80;;;7.52
67353;BMP180;54238;52.278;21.056;2023-02-18T03:14:14;99375.80;;;7.50
67353;BMP180;54238;52.278;21.056;2023-02-18T03:17:20;99378.20;;;7.40
67353;BMP180;54238;52.278;21.056;2023-02-18T03:20:18;99366.80;;;7.40
67353;BMP180;54238;52.278;21.056;2023-02-18T03:23:06;99384.40;;;7.40
67353;BMP180;54238;52.278;21.056;2023-02-18T03:25:39;99397.20;;;7.40
67353;BMP180;54238;52.278;21.056;2023-02-18T03:28:12;99397.80;;;7.36
67353;BMP180;54238;52.278;21.056;2023-02-18T03:30:59;99380.60;;;7.30
67353;BMP180;54238;52.278;21.056;2023-02-18T03:33:39;99408.60;;;7.30
67353;BMP180;54238;52.278;21.056;2023-02-18T03:36:11;99405.00;;;7.30
67353;BMP180;54238;52.278;21.056;2023-02-18T03:39:02;99399.80;;;7.30
67353;BMP180;54238;52.278;21.056;2023-02-18T03:41:38;99413.80;;;7.30
67353;BMP180;54238;52.278;21.056;2023-02-18T03:44:11;99418.20;;;7.20
67353;BMP180;54238;52.278;21.056;2023-02-18T03:46:41;99399.40;;;7.28
67353;BMP180;54238;52.278;21.056;2023-02-18T03:49:13;99392.00;;;7.20
67353;BMP180;54238;52.278;21.056;2023-02-18T03:51:46;99396.40;;;7.22
67353;BMP180;54238;52.278;21.056;2023-02-18T03:54:13;99412.60;;;7.20
67353;BMP180;54238;52.278;21.056;2023-02-18T03:56:43;99401.00;;;7.20
67353;BMP180;54238;52.278;21.056;2023-02-18T03:59:15;99409.20;;;7.20
67353;BMP180;54238;52.278;21.056;2023-02-18T04:01:47;99416.40;;;7.20
67353;BMP180;54238;52.278;21.056;2023-02-18T04:04:15;99403.40;;;7.20
67353;BMP180;54238;52.278;21.056;2023-02-18T04:06:51;99392.00;;;7.16
67353;BMP180;54238;52.278;21.056;2023-02-18T04:09:23;99421.40;;;7.10
67353;BMP180;54238;52.278;21.056;2023-02-18T04:11:53;99396.80;;;7.10
67353;BMP180;54238;52.278;21.056;2023-02-18T04:14:27;99388.60;;;7.10
67353;BMP180;54238;52.278;21.056;2023-02-18T04:17:09;99409.00;;;7.08
67353;BMP180;54238;52.278;21.056;2023-02-18T04:19:48;99407.40;;;7.00
67353;BMP180;54238;52.278;21.056;2023-02-18T04:22:16;99432.20;;;7.00
67353;BMP180;54238;52.278;21.056;2023-02-18T04:24:51;99408.20;;;7.00
67353;BMP180;54238;52.278;21.056;2023-02-18T04:27:18;99415.60;;;7.00
67353;BMP180;54238;52.278;21.056;2023-02-18T04:29:49;99409.60;;;7.00
67353;BMP180;54238;52.278;21.056;2023-02-18T04:32:19;99405.20;;;6.90
67353;BMP180;54238;52.278;21.056;2023-02-18T04:34:51;99429.20;;;6.90
67353;BMP180;54238;52.278;21.056;2023-02-18T04:37:20;99412.80;;;6.90
67353;BMP180;54238;52.278;21.056;2023-02-18T04:39:57;99420.20;;;6.90
67353;BMP180;54238;52.278;21.056;2023-02-18T04:42:25;99425.20;;;6.80
67353;BMP180;54238;52.278;21.056;2023-02-18T04:44:58;99448.40;;;6.80
67353;BMP180;54238;52.278;21.056;2023-02-18T04:47:25;99444.20;;;6.80
67353;BMP180;54238;52.278;21.056;2023-02-18T04:49:55;99449.40;;;6.80
67353;BMP180;54238;52.278;21.056;2023-02-18T04:52:27;99431.80;;;6.80
67353;BMP180;54238;52.278;21.056;2023-02-18T04:55:02;99442.40;;;6.80
67353;BMP180;54238;52.278;21.056;2023-02-18T04:57:31;99440.00;;;6.80
67353;BMP180;54238;52.278;21.056;2023-02-18T04:59:59;99442.00;;;6.70
67353;BMP180;54238;52.278;21.056;2023-02-18T05:02:29;99429.20;;;6.70
67353;BMP180;54238;52.278;21.056;2023-02-18T05:05:04;99435.60;;;6.70
67353;BMP180;54238;52.278;21.056;2023-02-18T05:07:34;99465.80;;;6.70
67353;BMP180;54238;52.278;21.056;2023-02-18T05:10:04;99458.80;;;6.70
67353;BMP180;54238;52.278;21.056;2023-02-18T05:12:36;99444.80;;;6.68
67353;BMP180;54238;52.278;21.056;2023-02-18T05:15:08;99440.60;;;6.70
67353;BMP180;54238;52.278;21.056;2023-02-18T05:17:36;99434.20;;;6.70
67353;BMP180;54238;52.278;21.056;2023-02-18T05:20:07;99453.80;;;6.70
67353;BMP180;54238;52.278;21.056;2023-02-18T05:22:34;99439.60;;;6.62
67353;BMP180;54238;52.278;21.056;2023-02-18T05:25:05;99435.80;;;6.68
67353;BMP180;54238;52.278;21.056;2023-02-18T05:27:36;99457.80;;;6.60
67353;BMP180;54238;52.278;21.056;2023-02-18T05:30:04;99465.60;;;6.60
67353;BMP180;54238;52.278;21.056;2023-02-18T05:32:33;99460.00;;;6.60
67353;BMP180;54238;52.278;21.056;2023-02-18T05:35:00;99476.80;;;6.60
67353;BMP180;54238;52.278;21.056;2023-02-18T05:37:30;99490.80;;;6.60
67353;BMP180;54238;52.278;21.056;2023-02-18T05:39:57;99461.60;;;6.56
67353;BMP180;54238;52.278;21.056;2023-02-18T05:42:26;99461.60;;;6.56
67353;BMP180;54238;52.278;21.056;2023-02-18T05:44:58;99460.20;;;6.50
67353;BMP180;54238;52.278;21.056;2023-02-18T05:47:25;99470.60;;;6.50
67353;BMP180;54238;52.278;21.056;2023-02-18T05:49:52;99486.60;;;6.50
67353;BMP180;54238;52.278;21.056;2023-02-18T05:52:27;99478.40;;;6.50
67353;BMP180;54238;52.278;21.056;2023-02-18T05:54:59;99506.00;;;6.50
67353;BMP180;54238;52.278;21.056;2023-02-18T05:57:29;99471.80;;;6.50
67353;BMP180;54238;52.278;21.056;2023-02-18T06:00:03;99472.00;;;6.50
67353;BMP180;54238;52.278;21.056;2023-02-18T06:02:34;99475.20;;;6.50
67353;BMP180;54238;52.278;21.056;2023-02-18T06:05:09;99468.40;;;6.50
67353;BMP180;54238;52.278;21.056;2023-02-18T06:07:39;99490.20;;;6.50
67353;BMP180;54238;52.278;21.056;2023-02-18T06:10:09;99489.00;;;6.50
67353;BMP180;54238;52.278;21.056;2023-02-18T06:12:36;99489.00;;;6.50
67353;BMP180;54238;52.278;21.056;2023-02-18T06:15:05;99492.00;;;6.50
67353;BMP180;54238;52.278;21.056;2023-02-18T06:17:35;99518.60;;;6.50
67353;BMP180;54238;52.278;21.056;2023-02-18T06:20:02;99526.60;;;6.56
67353;BMP180;54238;52.278;21.056;2023-02-18T06:22:30;99518.00;;;6.60
67353;BMP180;54238;52.278;21.056;2023-02-18T06:24:59;99517.20;;;6.60
67353;BMP180;54238;52.278;21.056;2023-02-18T06:27:29;99495.40;;;6.60
67353;BMP180;54238;52.278;21.056;2023-02-18T06:29:58;99520.20;;;6.60
67353;BMP180;54238;52.278;21.056;2023-02-18T06:32:28;99523.00;;;6.68
67353;BMP180;54238;52.278;21.056;2023-02-18T06:35:09;99504.00;;;6.70
67353;BMP180;54238;52.278;21.056;2023-02-18T06:37:41;99536.40;;;6.70
67353;BMP180;54238;52.278;21.056;2023-02-18T06:40:11;99586.40;;;6.70
67353;BMP180;54238;52.278;21.056;2023-02-18T06:42:39;99527.60;;;6.70
67353;BMP180;54238;52.278;21.056;2023-02-18T06:45:09;99531.00;;;6.68
67353;BMP180;54238;52.278;21.056;2023-02-18T06:47:41;99537.60;;;6.70
67353;BMP180;54238;52.278;21.056;2023-02-18T06:50:13;99522.00;;;6.66
67353;BMP180;54238;52.278;21.056;2023-02-18T06:52:43;99536.80;;;6.70
67353;BMP180;54238;52.278;21.056;2023-02-18T06:58:16;99552.20;;;6.62
67353;BMP180;54238;52.278;21.056;2023-02-18T07:00:45;99540.00;;;6.62
67353;BMP180;54238;52.278;21.056;2023-02-18T07:03:13;99544.80;;;6.60
67353;BMP180;54238;52.278;21.056;2023-02-18T07:05:43;99541.80;;;6.60
67353;BMP180;54238;52.278;21.056;2023-02-18T07:08:13;99522.20;;;6.60
67353;BMP180;54238;52.278;21.056;2023-02-18T07:13:36;99551.80;;;6.70
67353;BMP180;54238;52.278;21.056;2023-02-18T07:16:08;99537.60;;;6.70
67353;BMP180;54238;52.278;21.056;2023-02-18T07:18:38;99563.00;;;6.70
67353;BMP180;54238;52.278;21.056;2023-02-18T07:21:05;99540.80;;;6.70
67353;BMP180;54238;52.278;21.056;2023-02-18T07:23:35;99576.40;;;6.72
67353;BMP180;54238;52.278;21.056;2023-02-18T07:26:09;99544.00;;;6.80
67353;BMP180;54238;52.278;21.056;2023-02-18T07:28:38;99554.00;;;6.80
67353;BMP180;54238;52.278;21.056;2023-02-18T07:31:07;99567.60;;;6.80
67353;BMP180;54238;52.278;21.056;2023-02-18T07:33:36;99552.00;;;6.80
67353;BMP180;54238;52.278;21.056;2023-02-18T07:36:07;99550.40;;;6.80
67353;BMP180;54238;52.278;21.056;2023-02-18T07:38:34;99554.60;;;6.80
67353;BMP180;54238;52.278;21.056;2023-02-18T07:41:17;99553.40;;;6.80
67353;BMP180;54238;52.278;21.056;2023-02-18T07:43:47;99559.00;;;6.86
67353;BMP180;54238;52.278;21.056;2023-02-18T07:46:18;99565.40;;;6.90
67353;BMP180;54238;52.278;21.056;2023-02-18T07:48:49;99560.80;;;6.90
67353;BMP180;54238;52.278;21.056;2023-02-18T07:51:21;99548.80;;;7.00
67353;BMP180;54238;52.278;21.056;2023-02-18T07:53:50;99556.00;;;7.00
67353;BMP180;54238;52.278;21.056;2023-02-18T07:56:25;99562.60;;;7.00
67353;BMP180;54238;52.278;21.056;2023-02-18T07:58:55;99541.60;;;7.00
67353;BMP180;54238;52.278;21.056;2023-02-18T08:01:24;99590.60;;;7.00
67353;BMP180;54238;52.278;21.056;2023-02-18T08:03:54;99559.40;;;7.00
67353;BMP180;54238;52.278;21.056;2023-02-18T08:06:29;99578.40;;;7.02
67353;BMP180;54238;52.278;21.056;2023-02-18T08:08:57;99563.40;;;7.02
67353;BMP180;54238;52.278;21.056;2023-02-18T08:11:24;99559.40;;;7.10
67353;BMP180;54238;52.278;21.056;2023-02-18T08:13:57;99551.40;;;7.10
67353;BMP180;54238;52.278;21.056;2023-02-18T08:16:27;99553.00;;;7.10
67353;BMP180;54238;52.278;21.056;2023-02-18T08:19:00;99563.00;;;7.14
67353;BMP180;54238;52.278;21.056;2023-02-18T08:21:34;99558.20;;;7.20
67353;BMP180;54238;52.278;21.056;2023-02-18T08:24:08;99586.00;;;7.20
67353;BMP180;54238;52.278;21.056;2023-02-18T08:26:38;99583.40;;;7.30
67353;BMP180;54238;52.278;21.056;2023-02-18T08:29:10;99596.00;;;7.30
67353;BMP180;54238;52.278;21.056;2023-02-18T08:31:47;99572.60;;;7.30
67353;BMP180;54238;52.278;21.056;2023-02-18T08:34:23;99589.00;;;7.38
67353;BMP180;54238;52.278;21.056;2023-02-18T08:36:52;99584.80;;;7.38
67353;BMP180;54238;52.278;21.056;2023-02-18T08:39:21;99594.00;;;7.30
67353;BMP180;54238;52.278;21.056;2023-02-18T08:41:51;99589.80;;;7.34
67353;BMP180;54238;52.278;21.056;2023-02-18T08:44:20;99593.00;;;7.40
67353;BMP180;54238;52.278;21.056;2023-02-18T08:46:49;99569.40;;;7.40
67353;BMP180;54238;52.278;21.056;2023-02-18T08:49:19;99586.00;;;7.40
67353;BMP180;54238;52.278;21.056;2023-02-18T08:51:52;99583.20;;;7.40
67353;BMP180;54238;52.278;21.056;2023-02-18T08:57:21;99592.20;;;7.50
67353;BMP180;54238;52.278;21.056;2023-02-18T08:59:48;99605.40;;;7.50
67353;BMP180;54238;52.278;21.056;2023-02-18T09:02:16;99626.00;;;7.50
67353;BMP180;54238;52.278;21.056;2023-02-18T09:04:45;99625.00;;;7.50
67353;BMP180;54238;52.278;21.056;2023-02-18T09:07:12;99592.80;;;7.60
67353;BMP180;54238;52.278;21.056;2023-02-18T09:09:43;99627.80;;;7.60
67353;BMP180;54238;52.278;21.056;2023-02-18T09:12:10;99600.00;;;7.60
67353;BMP180;54238;52.278;21.056;2023-02-18T09:14:39;99617.00;;;7.60
67353;BMP180;54238;52.278;21.056;2023-02-18T09:17:08;99609.80;;;7.60
67353;BMP180;54238;52.278;21.056;2023-02-18T09:19:38;99657.80;;;7.60
67353;BMP180;54238;52.278;21.056;2023-02-18T09:22:08;99610.40;;;7.60
67353;BMP180;54238;52.278;21.056;2023-02-18T09:24:40;99615.00;;;7.74
67353;BMP180;54238;52.278;21.056;2023-02-18T09:27:07;99619.40;;;7.80
67353;BMP180;54238;52.278;21.056;2023-02-18T09:29:38;99634.00;;;7.80
67353;BMP180;54238;52.278;21.056;2023-02-18T09:32:07;99623.20;;;7.82
67353;BMP180;54238;52.278;21.056;2023-02-18T09:34:35;99670.00;;;7.80
67353;BMP180;54238;52.278;21.056;2023-02-18T09:37:08;99651.20;;;7.80
67353;BMP180;54238;52.278;21.056;2023-02-18T09:39:37;99629.20;;;7.70
67353;BMP180;54238;52.278;21.056;2023-02-18T09:42:11;99632.20;;;7.72
67353;BMP180;54238;52.278;21.056;2023-02-18T09:44:43;99629.60;;;7.76
67353;BMP180;54238;52.278;21.056;2023-02-18T09:50:13;99632.20;;;7.80
67353;BMP180;54238;52.278;21.056;2023-02-18T09:52:46;99643.00;;;7.80
67353;BMP180;54238;52.278;21.056;2023-02-18T09:55:24;99651.40;;;7.70
67353;BMP180;54238;52.278;21.056;2023-02-18T09:58:13;99640.80;;;7.80
67353;BMP180;54238;52.278;21.056;2023-02-18T10:04:39;99661.80;;;7.80
67353;BMP180;54238;52.278;21.056;2023-02-18T10:07:30;99653.20;;;7.80
67353;BMP180;54238;52.278;21.056;2023-02-18T10:10:10;99668.60;;;7.80
67353;BMP180;54238;52.278;21.056;2023-02-18T10:12:44;99646.60;;;7.80
67353;BMP180;54238;52.278;21.056;2023-02-18T10:15:28;99651.60;;;7.90
67353;BMP180;54238;52.278;21.056;2023-02-18T10:17:59;99668.00;;;7.90
67353;BMP180;54238;52.278;21.056;2023-02-18T10:20:33;99651.60;;;7.90
67353;BMP180;54238;52.278;21.056;2023-02-18T10:23:03;99646.80;;;7.90
67353;BMP180;54238;52.278;21.056;2023-02-18T10:25:37;99656.80;;;7.94
67353;BMP180;54238;52.278;21.056;2023-02-18T10:28:11;99653.00;;;8.00
67353;BMP180;54238;52.278;21.056;2023-02-18T10:30:54;99651.20;;;8.00
67353;BMP180;54238;52.278;21.056;2023-02-18T10:36:39;99645.20;;;8.30
67353;BMP180;54238;52.278;21.056;2023-02-18T10:39:44;99645.80;;;8.40
67353;BMP180;54238;52.278;21.056;2023-02-18T10:46:47;99634.40;;;8.60
67353;BMP180;54238;52.278;21.056;2023-02-18T10:52:04;99661.40;;;8.70
67353;BMP180;54238;52.278;21.056;2023-02-18T10:55:14;99635.40;;;8.78
67353;BMP180;54238;52.278;21.056;2023-02-18T10:57:53;99607.00;;;8.70
67353;BMP180;54238;52.278;21.056;2023-02-18T11:00:24;99635.40;;;8.66
67353;BMP180;54238;52.278;21.056;2023-02-18T11:05:47;99613.40;;;8.52
67353;BMP180;54238;52.278;21.056;2023-02-18T11:08:25;99632.20;;;8.50
67353;BMP180;54238;52.278;21.056;2023-02-18T11:11:11;99622.00;;;8.40
67353;BMP180;54238;52.278;21.056;2023-02-18T11:13:40;99616.60;;;8.30
67353;BMP180;54238;52.278;21.056;2023-02-18T11:16:11;99609.20;;;8.30
67353;BMP180;54238;52.278;21.056;2023-02-18T11:18:45;99611.60;;;8.30
67353;BMP180;54238;52.278;21.056;2023-02-18T11:21:36;99623.20;;;8.20
67353;BMP180;54238;52.278;21.056;2023-02-18T11:24:15;99622.40;;;8.18
67353;BMP180;54238;52.278;21.056;2023-02-18T11:26:47;99620.60;;;8.10
67353;BMP180;54238;52.278;21.056;2023-02-18T11:29:23;99590.40;;;8.14
67353;BMP180;54238;52.278;21.056;2023-02-18T11:31:55;99600.40;;;8.20
67353;BMP180;54238;52.278;21.056;2023-02-18T11:34:28;99599.60;;;8.38
67353;BMP180;54238;52.278;21.056;2023-02-18T11:37:21;99591.00;;;8.50
67353;BMP180;54238;52.278;21.056;2023-02-18T11:39:54;99597.80;;;8.70
67353;BMP180;54238;52.278;21.056;2023-02-18T11:42:25;99605.80;;;8.70
67353;BMP180;54238;52.278;21.056;2023-02-18T11:44:56;99606.20;;;8.80
67353;BMP180;54238;52.278;21.056;2023-02-18T11:50:21;99612.40;;;8.90
67353;BMP180;54238;52.278;21.056;2023-02-18T11:52:51;99602.60;;;9.00
67353;BMP180;54238;52.278;21.056;2023-02-18T11:55:24;99591.40;;;9.50
67353;BMP180;54238;52.278;21.056;2023-02-18T11:58:10;99584.00;;;9.82
67353;BMP180;54238;52.278;21.056;2023-02-18T12:00:45;99592.40;;;9.66
67353;BMP180;54238;52.278;21.056;2023-02-18T12:03:38;99608.00;;;9.60
67353;BMP180;54238;52.278;21.056;2023-02-18T12:06:33;99607.20;;;9.40
67353;BMP180;54238;52.278;21.056;2023-02-18T12:14:49;99583.40;;;8.90
67353;BMP180;54238;52.278;21.056;2023-02-18T12:20:21;99581.40;;;9.14
67353;BMP180;54238;52.278;21.056;2023-02-18T12:26:07;99568.40;;;9.30
67353;BMP180;54238;52.278;21.056;2023-02-18T12:32:08;99576.80;;;9.10
67353;BMP180;54238;52.278;21.056;2023-02-18T12:38:09;99580.60;;;8.80
67353;BMP180;54238;52.278;21.056;2023-02-18T12:59:14;99534.80;;;9.40
67353;BMP180;54238;52.278;21.056;2023-02-18T13:13:29;99559.80;;;9.24
67353;BMP180;54238;52.278;21.056;2023-02-18T13:16:12;99528.20;;;9.30
67353;BMP180;54238;52.278;21.056;2023-02-18T13:18:41;99534.40;;;9.20
67353;BMP180;54238;52.278;21.056;2023-02-18T13:21:15;99537.60;;;9.10
67353;BMP180;54238;52.278;21.056;2023-02-18T13:23:55;99530.80;;;9.00
67353;BMP180;54238;52.278;21.056;2023-02-18T13:26:33;99529.40;;;8.90
67353;BMP180;54238;52.278;21.056;2023-02-18T13:34:52;99542.20;;;8.58
67353;BMP180;54238;52.278;21.056;2023-02-18T13:40:27;99533.00;;;8.38
67353;BMP180;54238;52.278;21.056;2023-02-18T13:51:41;99540.80;;;8.02
67353;BMP180;54238;52.278;21.056;2023-02-18T13:56:59;99532.00;;;7.96
67353;BMP180;54238;52.278;21.056;2023-02-18T14:15:49;99525.60;;;7.80
67353;BMP180;54238;52.278;21.056;2023-02-18T14:18:30;99526.80;;;7.78
67353;BMP180;54238;52.278;21.056;2023-02-18T14:21:38;99523.00;;;7.80
67353;BMP180;54238;52.278;21.056;2023-02-18T14:24:09;99521.80;;;7.74
67353;BMP180;54238;52.278;21.056;2023-02-18T14:26:45;99523.00;;;7.70
67353;BMP180;54238;52.278;21.056;2023-02-18T14:29:25;99519.00;;;7.70
67353;BMP180;54238;52.278;21.056;2023-02-18T14:32:02;99514.40;;;7.70
67353;BMP180;54238;52.278;21.056;2023-02-18T14:44:02;99488.80;;;7.60
67353;BMP180;54238;52.278;21.056;2023-02-18T14:55:10;99504.40;;;7.50
67353;BMP180;54238;52.278;21.056;2023-02-18T14:58:26;99488.80;;;7.50
67353;BMP180;54238;52.278;21.056;2023-02-18T15:01:34;99485.80;;;7.48
67353;BMP180;54238;52.278;21.056;2023-02-18T15:04:03;99507.40;;;7.40
67353;BMP180;54238;52.278;21.056;2023-02-18T15:06:36;99497.00;;;7.40
67353;BMP180;54238;52.278;21.056;2023-02-18T15:09:24;99510.20;;;7.30
67353;BMP180;54238;52.278;21.056;2023-02-18T15:14:37;99536.00;;;7.10
67353;BMP180;54238;52.278;21.056;2023-02-18T15:20:16;99522.20;;;6.88
67353;BMP180;54238;52.278;21.056;2023-02-18T15:22:47;99507.40;;;6.70
67353;BMP180;54238;52.278;21.056;2023-02-18T15:25:16;99512.00;;;6.58
67353;BMP180;54238;52.278;21.056;2023-02-18T15:27:51;99509.40;;;6.50
67353;BMP180;54238;52.278;21.056;2023-02-18T15:30:29;99498.40;;;6.40
67353;BMP180;54238;52.278;21.056;2023-02-18T15:33:00;99518.60;;;6.38
67353;BMP180;54238;52.278;21.056;2023-02-18T15:35:32;99509.80;;;6.30
67353;BMP180;54238;52.278;21.056;2023-02-18T15:40:58;99500.40;;;6.20
67353;BMP180;54238;52.278;21.056;2023-02-18T15:43:28;99505.60;;;6.10
67353;BMP180;54238;52.278;21.056;2023-02-18T15:45:57;99511.40;;;6.10
67353;BMP180;54238;52.278;21.056;2023-02-18T15:51:11;99499.60;;;5.90
67353;BMP180;54238;52.278;21.056;2023-02-18T15:53:58;99510.60;;;5.90
67353;BMP180;54238;52.278;21.056;2023-02-18T15:56:39;99506.00;;;5.80
67353;BMP180;54238;52.278;21.056;2023-02-18T16:04:44;99511.20;;;5.60
67353;BMP180;54238;52.278;21.056;2023-02-18T16:07:31;99508.20;;;5.60
67353;BMP180;54238;52.278;21.056;2023-02-18T16:12:56;99508.80;;;5.50
67353;BMP180;54238;52.278;21.056;2023-02-18T16:15:31;99507.40;;;5.40
67353;BMP180;54238;52.278;21.056;2023-02-18T16:17:59;99508.00;;;5.40
67353;BMP180;54238;52.278;21.056;2023-02-18T16:20:36;99513.00;;;5.30
67353;BMP180;54238;52.278;21.056;2023-02-18T16:23:14;99520.80;;;5.26
67353;BMP180;54238;52.278;21.056;2023-02-18T16:25:48;99509.00;;;5.20
67353;BMP180;54238;52.278;21.056;2023-02-18T16:28:30;99510.60;;;5.10
67353;BMP180;54238;52.278;21.056;2023-02-18T16:31:01;99526.00;;;5.10
67353;BMP180;54238;52.278;21.056;2023-02-18T16:33:30;99506.80;;;5.00
67353;BMP180;54238;52.278;21.056;2023-02-18T16:36:02;99499.80;;;5.00
67353;BMP180;54238;52.278;21.056;2023-02-18T16:38:34;99510.20;;;5.00
67353;BMP180;54238;52.278;21.056;2023-02-18T16:41:04;99504.60;;;4.90
67353;BMP180;54238;52.278;21.056;2023-02-18T16:43:38;99498.60;;;4.90
67353;BMP180;54238;52.278;21.056;2023-02-18T16:46:16;99512.40;;;4.90
67353;BMP180;54238;52.278;21.056;2023-02-18T16:48:48;99507.40;;;4.82
67353;BMP180;54238;52.278;21.056;2023-02-18T16:51:29;99509.80;;;4.80
67353;BMP180;54238;52.278;21.056;2023-02-18T16:54:02;99504.00;;;4.80
67353;BMP180;54238;52.278;21.056;2023-02-18T16:56:34;99502.80;;;4.80
67353;BMP180;54238;52.278;21.056;2023-02-18T16:59:07;99501.20;;;4.80
67353;BMP180;54238;52.278;21.056;2023-02-18T17:01:43;99507.60;;;4.80
67353;BMP180;54238;52.278;21.056;2023-02-18T17:04:14;99506.40;;;4.80
67353;BMP180;54238;52.278;21.056;2023-02-18T17:06:45;99498.20;;;4.80
67353;BMP180;54238;52.278;21.056;2023-02-18T17:09:23;99502.40;;;4.80
67353;BMP180;54238;52.278;21.056;2023-02-18T17:11:54;99502.00;;;4.80
67353;BMP180;54238;52.278;21.056;2023-02-18T17:14:22;99505.40;;;4.78
67353;BMP180;54238;52.278;21.056;2023-02-18T17:16:56;99502.60;;;4.70
67353;BMP180;54238;52.278;21.056;2023-02-18T17:19:27;99492.60;;;4.70
67353;BMP180;54238;52.278;21.056;2023-02-18T17:21:57;99480.60;;;4.70
67353;BMP180;54238;52.278;21.056;2023-02-18T17:24:27;99476.40;;;4.72
67353;BMP180;54238;52.278;21.056;2023-02-18T17:26:55;99484.00;;;4.80
67353;BMP180;54238;52.278;21.056;2023-02-18T17:29:24;99492.00;;;4.80
67353;BMP180;54238;52.278;21.056;2023-02-18T17:31:55;99494.40;;;4.80
67353;BMP180;54238;52.278;21.056;2023-02-18T17:34:28;99497.20;;;4.80
67353;BMP180;54238;52.278;21.056;2023-02-18T17:36:57;99495.20;;;4.80
67353;BMP180;54238;52.278;21.056;2023-02-18T17:39:29;99491.20;;;4.80
67353;BMP180;54238;52.278;21.056;2023-02-18T17:41:59;99493.00;;;4.80
67353;BMP180;54238;52.278;21.056;2023-02-18T17:44:29;99495.20;;;4.80
67353;BMP180;54238;52.278;21.056;2023-02-18T17:46:56;99489.40;;;4.80
67353;BMP180;54238;52.278;21.056;2023-02-18T17:49:26;99489.20;;;4.80
67353;BMP180;54238;52.278;21.056;2023-02-18T17:51:55;99487.00;;;4.80
67353;BMP180;54238;52.278;21.056;2023-02-18T17:54:25;99486.20;;;4.80
67353;BMP180;54238;52.278;21.056;2023-02-18T17:56:52;99489.80;;;4.70
67353;BMP180;54238;52.278;21.056;2023-02-18T17:59:21;99485.00;;;4.72
67353;BMP180;54238;52.278;21.056;2023-02-18T18:01:53;99484.40;;;4.76
67353;BMP180;54238;52.278;21.056;2023-02-18T18:04:20;99487.80;;;4.80